Time;durP1;ratioP1;P1;durP2;ratioP2;P2;SDS_P1;SDS_P2;PMS_P1;PMS_P2;Temp;Humidity;BMP_temperature;BMP_pressure;BME280_temperature;BME280_humidity;BME280_pressure;Samples;Min_cycle;Max_cycle;Signal;HPM_P1;HPM_P2
2023/06/14 00:01:48;;;;;;;3.67;2.90;;;;;;;;;;4955934;29;20227;-74
2023/06/14 00:04:52;;;;;;;5.33;3.10;;;;;;;;;;4957254;29;20623;-73
2023/06/14 00:07:56;;;;;;;5.13;2.93;;;;;;;;;;4956420;29;20191;-74
2023/06/14 00:11:00;;;;;;;6.60;3.00;;;;;;;;;;4955884;28;20179;-74
2023/06/14 00:14:05;;;;;;;3.67;2.83;;;;;;;;;;4956572;29;20183;-74
2023/06/14 00:17:09;;;;;;;4.63;2.73;;;;;;;;;;4955884;29;20663;-74
2023/06/14 00:20:13;;;;;;;3.90;2.63;;;;;;;;;;4955570;29;20203;-74
2023/06/14 00:23:18;;;;;;;3.80;2.70;;;;;;;;;;4956408;29;20184;-74
2023/06/14 00:26:22;;;;;;;5.47;2.80;;;;;;;;;;4955292;29;20184;-74
2023/06/14 00:29:26;;;;;;;4.40;2.80;;;;;;;;;;4955356;29;20184;-74
2023/06/14 00:32:30;;;;;;;6.43;3.17;;;;;;;;;;4955429;29;20219;-74
2023/06/14 00:35:34;;;;;;;3.60;3.10;;;;;;;;;;4955377;29;20287;-74
2023/06/14 00:38:38;;;;;;;4.07;2.70;;;;;;;;;;4955363;29;20175;-74
2023/06/14 00:41:42;;;;;;;4.50;2.90;;;;;;;;;;4955408;29;20591;-74
2023/06/14 00:44:46;;;;;;;3.97;3.20;;;;;;;;;;4944169;29;20180;-74
2023/06/14 00:47:54;;;;;;;6.03;3.27;;;;;;;;;;4955435;29;20631;-74
2023/06/14 00:51:03;;;;;;;6.43;3.00;;;;;;;;;;4955531;29;20196;-74
2023/06/14 00:54:08;;;;;;;4.70;3.53;;;;;;;;;;4954904;29;20192;-74
2023/06/14 00:57:13;;;;;;;4.43;3.20;;;;;;;;;;4954961;29;20211;-74
2023/06/14 01:00:19;;;;;;;4.60;3.30;;;;;;;;;;4954990;29;20521;-74
2023/06/14 01:03:41;;;;;;;3.93;3.10;;;;;;;;;;4955974;29;20188;-74
2023/06/14 01:07:15;;;;;;;6.17;3.10;;;;;;;;;;4955703;29;20516;-74
2023/06/14 01:10:28;;;;;;;6.37;3.40;;;;;;;;;;4943540;29;20200;-74
2023/06/14 01:13:35;;;;;;;5.70;3.63;;;;;;;;;;4954727;29;20199;-74
2023/06/14 01:16:40;;;;;;;3.43;2.90;;;;;;;;;;4954640;29;20670;-74
2023/06/14 01:19:45;;;;;;;3.83;3.17;;;;;;;;;;4954759;29;20638;-74
2023/06/14 01:22:55;;;;;;;4.87;2.83;;;;;;;;;;4954405;28;20215;-74
2023/06/14 01:26:03;;;;;;;2.80;2.40;;;;;;;;;;4954649;29;20180;-74
2023/06/14 01:29:11;;;;;;;4.63;3.03;;;;;;;;;;4954646;29;20172;-74
2023/06/14 01:32:15;;;;;;;3.83;3.00;;;;;;;;;;4954365;29;20215;-74
2023/06/14 01:35:20;;;;;;;3.53;2.90;;;;;;;;;;4954582;29;20187;-74
2023/06/14 01:38:26;;;;;;;3.60;2.93;;;;;;;;;;4954669;29;20662;-74
2023/06/14 01:41:31;;;;;;;4.00;2.97;;;;;;;;;;4943686;29;20223;-74
2023/06/14 01:44:35;;;;;;;5.53;3.30;;;;;;;;;;4968103;23;20226;-70
2023/06/14 01:47:40;;;;;;;8.07;3.30;;;;;;;;;;4965347;28;20639;-70
2023/06/14 01:50:44;;;;;;;4.57;3.07;;;;;;;;;;4965128;28;20665;-70
2023/06/14 01:53:48;;;;;;;5.90;2.90;;;;;;;;;;4954645;29;20179;-70
2023/06/14 01:56:52;;;;;;;5.37;3.17;;;;;;;;;;4955070;29;20183;-70
2023/06/14 01:59:56;;;;;;;3.73;2.80;;;;;;;;;;4943260;29;20534;-70
2023/06/14 02:03:00;;;;;;;4.53;3.10;;;;;;;;;;4954256;29;20559;-70
2023/06/14 02:06:05;;;;;;;4.33;2.93;;;;;;;;;;4943284;29;20184;-70
2023/06/14 02:09:10;;;;;;;3.80;3.10;;;;;;;;;;4955141;29;20520;-70
2023/06/14 02:12:14;;;;;;;5.17;3.10;;;;;;;;;;4953967;29;20211;-70
2023/06/14 02:15:19;;;;;;;3.20;2.87;;;;;;;;;;4953909;29;20199;-70
2023/06/14 02:18:23;;;;;;;8.43;3.30;;;;;;;;;;4954328;29;20204;-70
2023/06/14 02:21:27;;;;;;;3.50;3.07;;;;;;;;;;4955006;29;20694;-70
2023/06/14 02:24:31;;;;;;;4.23;3.10;;;;;;;;;;4964944;28;20180;-71
2023/06/14 02:27:36;;;;;;;4.77;3.03;;;;;;;;;;4954977;29;20183;-70
2023/06/14 02:30:41;;;;;;;4.60;3.03;;;;;;;;;;4954737;29;20188;-70
2023/06/14 02:33:45;;;;;;;3.77;3.03;;;;;;;;;;4953766;29;20180;-70
2023/06/14 02:36:52;;;;;;;4.67;3.10;;;;;;;;;;4958010;29;20183;-70
2023/06/14 02:39:58;;;;;;;4.63;3.20;;;;;;;;;;4957535;29;20176;-70
2023/06/14 02:43:02;;;;;;;3.63;3.03;;;;;;;;;;4957335;29;20219;-70
2023/06/14 02:46:07;;;;;;;4.10;3.20;;;;;;;;;;4957024;29;20199;-70
2023/06/14 02:49:11;;;;;;;3.80;2.80;;;;;;;;;;4957122;29;20179;-70
2023/06/14 02:52:16;;;;;;;3.80;3.07;;;;;;;;;;4957017;29;20223;-70
2023/06/14 02:55:20;;;;;;;3.70;2.93;;;;;;;;;;4957226;29;20183;-70
2023/06/14 02:58:24;;;;;;;4.53;2.83;;;;;;;;;;4957119;29;20211;-70
2023/06/14 03:01:34;;;;;;;5.07;3.33;;;;;;;;;;4957070;29;20215;-70
2023/06/14 03:04:44;;;;;;;3.77;3.37;;;;;;;;;;4946927;29;20199;-70
2023/06/14 03:07:53;;;;;;;7.30;3.17;;;;;;;;;;4956675;29;20195;-70
2023/06/14 03:10:58;;;;;;;4.13;3.13;;;;;;;;;;4957129;29;20523;-70
2023/06/14 03:14:04;;;;;;;7.60;3.13;;;;;;;;;;4957030;29;20200;-70
2023/06/14 03:17:09;;;;;;;5.17;3.27;;;;;;;;;;4967538;28;20200;-70
2023/06/14 03:20:17;;;;;;;4.93;3.30;;;;;;;;;;4956802;29;20188;-70
2023/06/14 03:23:22;;;;;;;4.03;3.37;;;;;;;;;;4956768;29;20188;-70
2023/06/14 03:26:26;;;;;;;9.97;3.50;;;;;;;;;;4956687;29;20184;-70
2023/06/14 03:29:33;;;;;;;7.60;3.30;;;;;;;;;;4946292;29;20175;-70
2023/06/14 03:32:37;;;;;;;11.57;3.70;;;;;;;;;;4956235;29;20223;-70
2023/06/14 03:35:43;;;;;;;7.87;3.53;;;;;;;;;;4956734;29;20210;-70
2023/06/14 03:38:48;;;;;;;4.30;3.27;;;;;;;;;;4956654;29;20215;-70
2023/06/14 03:41:54;;;;;;;6.80;3.40;;;;;;;;;;4956224;29;20219;-70
2023/06/14 03:44:59;;;;;;;5.93;3.27;;;;;;;;;;4956164;29;20203;-70
2023/06/14 03:48:06;;;;;;;6.87;3.47;;;;;;;;;;4956261;29;20623;-70
2023/06/14 03:51:10;;;;;;;4.00;3.23;;;;;;;;;;4956043;29;20219;-72
2023/06/14 03:54:15;;;;;;;5.10;3.00;;;;;;;;;;4945308;29;20179;-71
2023/06/14 03:57:22;;;;;;;5.37;3.10;;;;;;;;;;4941312;29;20203;-70
2023/06/14 04:00:28;;;;;;;5.97;3.20;;;;;;;;;;4956056;29;20183;-71
2023/06/14 04:03:33;;;;;;;6.50;3.67;;;;;;;;;;4944985;29;20205;-70
2023/06/14 04:06:38;;;;;;;5.37;3.30;;;;;;;;;;4944987;29;20184;-71
2023/06/14 04:09:43;;;;;;;5.90;3.63;;;;;;;;;;4956164;29;20175;-71
2023/06/14 04:12:48;;;;;;;3.90;2.87;;;;;;;;;;4934196;29;20215;-70
2023/06/14 04:15:53;;;;;;;4.60;3.37;;;;;;;;;;4956447;29;20176;-71
2023/06/14 04:19:02;;;;;;;4.53;3.10;;;;;;;;;;4955693;29;20211;-71
2023/06/14 04:22:06;;;;;;;4.70;3.50;;;;;;;;;;4955509;29;20678;-71
2023/06/14 04:25:13;;;;;;;5.13;3.83;;;;;;;;;;4955599;29;20183;-71
2023/06/14 04:28:19;;;;;;;6.40;3.37;;;;;;;;;;4955109;29;20204;-71
2023/06/14 04:31:25;;;;;;;5.07;3.20;;;;;;;;;;4955334;29;20218;-71
2023/06/14 04:34:33;;;;;;;6.10;3.63;;;;;;;;;;4955414;29;20180;-71
2023/06/14 04:37:41;;;;;;;5.07;3.60;;;;;;;;;;4955293;29;20187;-71
2023/06/14 04:40:45;;;;;;;5.67;3.60;;;;;;;;;;4955200;29;20662;-70
2023/06/14 04:43:53;;;;;;;3.83;3.17;;;;;;;;;;4954903;29;20203;-71
2023/06/14 04:46:58;;;;;;;5.47;3.40;;;;;;;;;;4954881;29;20179;-71
2023/06/14 04:50:03;;;;;;;4.47;3.43;;;;;;;;;;4954937;29;20175;-71
2023/06/14 04:53:11;;;;;;;4.53;3.80;;;;;;;;;;4955105;29;20639;-72
2023/06/14 04:56:16;;;;;;;7.07;3.83;;;;;;;;;;4954845;29;20179;-71
2023/06/14 04:59:24;;;;;;;7.20;3.73;;;;;;;;;;4924174;29;20682;-71
2023/06/14 05:02:30;;;;;;;5.83;4.17;;;;;;;;;;4935463;29;20572;-70
2023/06/14 05:05:34;;;;;;;6.87;3.87;;;;;;;;;;4935731;29;20180;-70
2023/06/14 05:08:38;;;;;;;5.93;3.30;;;;;;;;;;4935465;29;20180;-71
2023/06/14 05:11:43;;;;;;;5.73;3.63;;;;;;;;;;4935555;29;20220;-71
2023/06/14 05:14:48;;;;;;;7.10;3.90;;;;;;;;;;4935384;29;20180;-71
2023/06/14 05:17:55;;;;;;;7.47;3.63;;;;;;;;;;4935140;29;20180;-71
2023/06/14 05:20:59;;;;;;;6.03;4.20;;;;;;;;;;4935447;29;20184;-71
2023/06/14 05:24:03;;;;;;;8.87;3.83;;;;;;;;;;4935494;29;20184;-71
2023/06/14 05:27:07;;;;;;;8.80;4.30;;;;;;;;;;4940710;29;20567;-70
2023/06/14 05:30:11;;;;;;;9.70;4.07;;;;;;;;;;4954535;29;20179;-71
2023/06/14 05:33:15;;;;;;;9.57;4.57;;;;;;;;;;4955388;29;20183;-71
2023/06/14 05:36:21;;;;;;;7.90;4.33;;;;;;;;;;4954456;29;20183;-71
2023/06/14 05:39:25;;;;;;;6.73;4.00;;;;;;;;;;4955498;29;20223;-71
2023/06/14 05:42:29;;;;;;;6.23;3.63;;;;;;;;;;4954945;29;20555;-71
2023/06/14 05:45:33;;;;;;;5.60;3.47;;;;;;;;;;4954910;29;20203;-71
2023/06/14 05:48:37;;;;;;;4.43;3.10;;;;;;;;;;4954127;29;20195;-71
2023/06/14 05:51:42;;;;;;;7.90;3.10;;;;;;;;;;4954380;29;20215;-70
2023/06/14 05:54:47;;;;;;;12.23;2.87;;;;;;;;;;4954766;29;20199;-71
2023/06/14 05:57:51;;;;;;;8.47;3.00;;;;;;;;;;4954667;29;20583;-71
2023/06/14 06:00:55;;;;;;;4.87;2.40;;;;;;;;;;4953957;29;20187;-70
2023/06/14 06:03:59;;;;;;;9.13;5.27;;;;;;;;;;4954242;29;20519;-71
2023/06/14 06:07:05;;;;;;;10.43;2.90;;;;;;;;;;4954496;29;20199;-70
2023/06/14 06:10:09;;;;;;;7.87;3.10;;;;;;;;;;4955811;28;20191;-70
2023/06/14 06:13:13;;;;;;;3.90;2.70;;;;;;;;;;4958998;29;20192;-70
2023/06/14 06:16:17;;;;;;;3.50;2.60;;;;;;;;;;4958501;29;20179;-70
2023/06/14 06:19:21;;;;;;;7.90;3.03;;;;;;;;;;4957460;29;20211;-70
2023/06/14 06:22:26;;;;;;;9.10;2.30;;;;;;;;;;4958638;29;20222;-71
2023/06/14 06:25:31;;;;;;;5.57;2.67;;;;;;;;;;4957779;29;20180;-71
2023/06/14 06:28:35;;;;;;;6.57;2.80;;;;;;;;;;4957768;29;20195;-70
2023/06/14 06:31:39;;;;;;;9.17;2.77;;;;;;;;;;4946491;29;20215;-71
2023/06/14 06:34:43;;;;;;;6.10;2.93;;;;;;;;;;4958639;29;20180;-71
2023/06/14 06:37:47;;;;;;;15.90;5.57;;;;;;;;;;4957470;29;20524;-71
2023/06/14 06:40:51;;;;;;;4.93;2.63;;;;;;;;;;4958348;29;20196;-71
2023/06/14 06:43:55;;;;;;;5.63;2.30;;;;;;;;;;4958392;29;20523;-72
2023/06/14 06:47:06;;;;;;;6.53;2.53;;;;;;;;;;4957322;29;20631;-71
2023/06/14 06:50:10;;;;;;;4.13;2.60;;;;;;;;;;4957844;29;20175;-71
2023/06/14 06:53:15;;;;;;;7.10;2.43;;;;;;;;;;4958286;29;20175;-71
2023/06/14 06:56:19;;;;;;;4.27;2.60;;;;;;;;;;4956700;29;20203;-70
2023/06/14 06:59:24;;;;;;;6.83;2.73;;;;;;;;;;4938442;29;20212;-70
2023/06/14 07:02:30;;;;;;;3.33;2.37;;;;;;;;;;4938740;29;20219;-70
2023/06/14 07:05:34;;;;;;;4.77;2.40;;;;;;;;;;4938378;29;20628;-70
2023/06/14 07:08:38;;;;;;;4.47;2.60;;;;;;;;;;4938627;29;20520;-70
2023/06/14 07:11:43;;;;;;;4.40;2.37;;;;;;;;;;4938218;29;20219;-70
2023/06/14 07:14:48;;;;;;;8.63;3.50;;;;;;;;;;4937953;29;20628;-70
2023/06/14 07:17:52;;;;;;;8.57;3.00;;;;;;;;;;4938467;29;20188;-71
2023/06/14 07:20:57;;;;;;;5.57;2.40;;;;;;;;;;4937075;29;20184;-70
2023/06/14 07:24:01;;;;;;;4.07;2.00;;;;;;;;;;4937785;29;20176;-71
2023/06/14 07:27:05;;;;;;;3.87;2.53;;;;;;;;;;4942330;29;20202;-70
2023/06/14 07:30:10;;;;;;;3.27;2.50;;;;;;;;;;4957545;29;20180;-71
2023/06/14 07:33:14;;;;;;;3.27;2.70;;;;;;;;;;4957355;29;20184;-72
2023/06/14 07:36:18;;;;;;;3.20;2.40;;;;;;;;;;4956463;29;20642;-71
2023/06/14 07:39:23;;;;;;;6.20;3.00;;;;;;;;;;4955959;29;20239;-71
2023/06/14 07:42:27;;;;;;;5.80;2.53;;;;;;;;;;4956785;29;20568;-71
2023/06/14 07:45:31;;;;;;;9.03;3.17;;;;;;;;;;4956596;29;20202;-72
2023/06/14 07:48:35;;;;;;;3.83;2.40;;;;;;;;;;4956849;29;20643;-71
2023/06/14 07:51:39;;;;;;;5.97;2.77;;;;;;;;;;4956877;29;20223;-71
2023/06/14 07:54:43;;;;;;;3.50;2.37;;;;;;;;;;4957037;29;20627;-71
2023/06/14 07:57:48;;;;;;;16.70;3.37;;;;;;;;;;4956450;29;20193;-71
2023/06/14 08:00:52;;;;;;;6.33;2.50;;;;;;;;;;4957071;29;20345;-71
2023/06/14 08:03:56;;;;;;;4.80;2.90;;;;;;;;;;4956773;29;20638;-71
2023/06/14 08:07:00;;;;;;;3.63;2.37;;;;;;;;;;4955856;29;20197;-72
2023/06/14 08:10:06;;;;;;;4.87;2.67;;;;;;;;;;4956986;29;20619;-70
2023/06/14 08:13:10;;;;;;;5.90;2.30;;;;;;;;;;4956411;29;20189;-70
2023/06/14 08:16:15;;;;;;;4.40;2.58;;;;;;;;;;4955657;29;20176;-71
2023/06/14 08:19:19;;;;;;;4.95;3.17;;;;;;;;;;4956221;29;20684;-71
2023/06/14 08:22:24;;;;;;;6.93;2.72;;;;;;;;;;4955392;29;20218;-70
2023/06/14 08:25:28;;;;;;;7.80;2.67;;;;;;;;;;4956372;29;20179;-71
2023/06/14 08:28:32;;;;;;;6.05;2.78;;;;;;;;;;4955101;29;20211;-70
2023/06/14 08:31:36;;;;;;;4.50;3.10;;;;;;;;;;4955110;29;20218;-71
2023/06/14 08:34:40;;;;;;;5.20;2.70;;;;;;;;;;4955025;29;20204;-70
2023/06/14 08:37:45;;;;;;;3.95;2.63;;;;;;;;;;4955330;29;20202;-71
2023/06/14 08:40:52;;;;;;;5.57;2.92;;;;;;;;;;4955896;29;20225;-71
2023/06/14 08:43:56;;;;;;;7.20;2.75;;;;;;;;;;4955661;29;20205;-71
2023/06/14 08:47:03;;;;;;;5.72;2.15;;;;;;;;;;4955830;29;20181;-70
2023/06/14 08:50:08;;;;;;;3.03;2.25;;;;;;;;;;4955678;29;20178;-71
2023/06/14 08:53:20;;;;;;;6.35;2.47;;;;;;;;;;4955885;29;20197;-70
2023/06/14 08:56:28;;;;;;;4.35;2.92;;;;;;;;;;4955819;29;20191;-71
2023/06/14 08:59:39;;;;;;;3.53;2.65;;;;;;;;;;4936458;29;20569;-70
2023/06/14 09:02:46;;;;;;;4.65;2.90;;;;;;;;;;4935796;29;20220;-70
2023/06/14 09:05:52;;;;;;;4.25;2.80;;;;;;;;;;4936773;29;20181;-71
2023/06/14 09:08:59;;;;;;;6.10;2.50;;;;;;;;;;4936210;29;20182;-72
2023/06/14 09:12:06;;;;;;;5.63;2.50;;;;;;;;;;4924510;29;20698;-71
2023/06/14 09:15:10;;;;;;;3.80;2.60;;;;;;;;;;4936567;29;20190;-71
2023/06/14 09:18:14;;;;;;;5.70;2.88;;;;;;;;;;4936377;29;20181;-72
2023/06/14 09:21:20;;;;;;;2.88;2.40;;;;;;;;;;4936017;29;20222;-71
2023/06/14 09:24:27;;;;;;;4.85;2.63;;;;;;;;;;4936094;29;20190;-71
2023/06/14 09:27:32;;;;;;;5.78;2.33;;;;;;;;;;4942892;29;20210;-70
2023/06/14 09:30:37;;;;;;;4.05;2.28;;;;;;;;;;4955306;29;20193;-71
2023/06/14 09:33:47;;;;;;;4.25;2.92;;;;;;;;;;4955061;29;20202;-71
2023/06/14 09:36:51;;;;;;;5.13;2.55;;;;;;;;;;4955155;29;20183;-71
2023/06/14 09:39:56;;;;;;;3.53;2.65;;;;;;;;;;4954949;29;20211;-72
2023/06/14 09:43:00;;;;;;;9.27;4.10;;;;;;;;;;4955201;29;20223;-71
2023/06/14 09:46:04;;;;;;;3.40;2.65;;;;;;;;;;4959186;29;20209;-71
2023/06/14 09:49:08;;;;;;;4.95;2.20;;;;;;;;;;4959032;29;20190;-72
2023/06/14 09:52:20;;;;;;;5.30;2.88;;;;;;;;;;4947335;29;20222;-71
2023/06/14 09:55:27;;;;;;;5.60;2.28;;;;;;;;;;4958763;29;20206;-70
2023/06/14 09:58:33;;;;;;;3.70;2.70;;;;;;;;;;4958033;29;20208;-70
2023/06/14 10:01:42;;;;;;;17.70;8.50;;;;;;;;;;4958855;29;20708;-71
2023/06/14 10:04:52;;;;;;;5.75;2.67;;;;;;;;;;4954399;23;20287;-72
2023/06/14 10:08:07;;;;;;;4.22;3.10;;;;;;;;;;4958844;29;20197;-72
2023/06/14 10:11:13;;;;;;;5.20;3.17;;;;;;;;;;4958496;29;20218;-73
2023/06/14 10:14:18;;;;;;;4.80;3.10;;;;;;;;;;4958769;29;20183;-73
2023/06/14 10:17:26;;;;;;;3.78;2.40;;;;;;;;;;4958489;29;20534;-73
2023/06/14 10:20:38;;;;;;;3.42;2.22;;;;;;;;;;4958523;29;20223;-73
2023/06/14 10:23:45;;;;;;;2.65;2.30;;;;;;;;;;4958334;29;20192;-72
2023/06/14 10:26:57;;;;;;;6.68;2.63;;;;;;;;;;4958530;29;20515;-73
2023/06/14 10:30:07;;;;;;;5.38;2.67;;;;;;;;;;4958763;29;20185;-73
2023/06/14 10:33:15;;;;;;;6.18;2.45;;;;;;;;;;4958466;29;20180;-73
2023/06/14 10:36:22;;;;;;;6.22;2.50;;;;;;;;;;4958606;29;20627;-73
2023/06/14 10:39:27;;;;;;;9.13;3.13;;;;;;;;;;4946502;29;20183;-73
2023/06/14 10:42:34;;;;;;;5.93;2.75;;;;;;;;;;4958491;29;20223;-73
2023/06/14 10:46:27;;;;;;;5.45;2.78;;;;;;;;;;4957949;29;20547;-73
2023/06/14 10:49:41;;;;;;;5.05;2.05;;;;;;;;;;4958244;29;20185;-73
2023/06/14 10:52:45;;;;;;;5.53;2.45;;;;;;;;;;4957806;29;20219;-73
2023/06/14 10:55:50;;;;;;;4.38;2.75;;;;;;;;;;4957420;28;20184;-73
2023/06/14 10:58:57;;;;;;;3.38;2.40;;;;;;;;;;4946300;29;20182;-73
2023/06/14 11:02:21;;;;;;;10.38;2.60;;;;;;;;;;4968347;28;20206;-73
2023/06/14 11:05:27;;;;;;;6.10;2.35;;;;;;;;;;4956871;29;20223;-73
2023/06/14 11:08:50;;;;;;;3.63;2.78;;;;;;;;;;4968441;28;20630;-73
2023/06/14 11:11:56;;;;;;;5.90;2.75;;;;;;;;;;4956989;29;20227;-72
2023/06/14 11:15:01;;;;;;;6.28;2.60;;;;;;;;;;4957487;29;20206;-72
2023/06/14 11:18:07;;;;;;;4.25;2.72;;;;;;;;;;4957436;29;20185;-73
2023/06/14 11:21:15;;;;;;;6.88;3.17;;;;;;;;;;4957444;29;20224;-73
2023/06/14 11:24:20;;;;;;;5.80;3.13;;;;;;;;;;4945831;29;20184;-72
2023/06/14 11:27:27;;;;;;;4.53;2.67;;;;;;;;;;4957376;29;20199;-72
2023/06/14 11:30:31;;;;;;;3.97;2.33;;;;;;;;;;4957304;29;20627;-72
2023/06/14 11:33:35;;;;;;;4.10;2.63;;;;;;;;;;4957667;29;20181;-72
2023/06/14 11:36:39;;;;;;;4.00;2.67;;;;;;;;;;4957682;29;20180;-72
2023/06/14 11:39:45;;;;;;;5.40;2.80;;;;;;;;;;4957298;29;20191;-72
2023/06/14 11:42:49;;;;;;;4.87;2.50;;;;;;;;;;4956234;29;20223;-72
2023/06/14 11:45:53;;;;;;;4.50;2.87;;;;;;;;;;4956005;29;20685;-72
2023/06/14 11:48:58;;;;;;;3.83;3.00;;;;;;;;;;4957074;29;20204;-72
2023/06/14 11:52:02;;;;;;;5.33;2.93;;;;;;;;;;4956287;29;20693;-72
2023/06/14 11:55:06;;;;;;;5.25;2.63;;;;;;;;;;4956241;29;20183;-72
2023/06/14 11:58:10;;;;;;;4.82;2.40;;;;;;;;;;4956659;29;20223;-72
2023/06/14 12:01:16;;;;;;;7.25;2.80;;;;;;;;;;4957128;29;20563;-72
2023/06/14 12:04:27;;;;;;;5.57;2.28;;;;;;;;;;4956883;28;20288;-72
2023/06/14 12:07:31;;;;;;;9.85;2.60;;;;;;;;;;4956635;28;20523;-72
2023/06/14 12:10:43;;;;;;;21.70;3.60;;;;;;;;;;4957036;29;20188;-73
2023/06/14 12:13:48;;;;;;;11.50;2.72;;;;;;;;;;4956562;29;20201;-73
2023/06/14 12:17:07;;;;;;;7.22;2.75;;;;;;;;;;4956070;29;20180;-73
2023/06/14 12:20:21;;;;;;;7.70;2.63;;;;;;;;;;4955682;29;20223;-73
2023/06/14 12:23:25;;;;;;;5.00;2.35;;;;;;;;;;4956818;29;20540;-73
2023/06/14 12:26:29;;;;;;;7.00;2.50;;;;;;;;;;4956158;29;20200;-72
2023/06/14 12:29:33;;;;;;;12.85;3.35;;;;;;;;;;4956303;29;20225;-72
2023/06/14 12:32:37;;;;;;;3.10;2.40;;;;;;;;;;4955962;29;20242;-72
2023/06/14 12:35:42;;;;;;;6.82;2.22;;;;;;;;;;4955724;29;20184;-72
2023/06/14 12:38:46;;;;;;;5.55;3.80;;;;;;;;;;4955905;29;20184;-73
2023/06/14 12:41:50;;;;;;;3.63;2.22;;;;;;;;;;4955806;29;20227;-73
2023/06/14 12:44:55;;;;;;;2.65;2.45;;;;;;;;;;4954873;29;20182;-73
2023/06/14 12:47:59;;;;;;;6.15;2.72;;;;;;;;;;4955602;29;20207;-73
2023/06/14 12:51:03;;;;;;;4.35;2.67;;;;;;;;;;4955740;29;20175;-73
2023/06/14 12:54:07;;;;;;;5.90;3.13;;;;;;;;;;4955245;29;20654;-73
2023/06/14 12:57:11;;;;;;;4.78;2.80;;;;;;;;;;4955904;29;20201;-73
2023/06/14 13:00:17;;;;;;;6.28;2.90;;;;;;;;;;4955334;29;20203;-73
2023/06/14 13:03:21;;;;;;;5.07;2.90;;;;;;;;;;4954583;29;20201;-73
2023/06/14 13:06:25;;;;;;;4.63;2.85;;;;;;;;;;4954595;29;20568;-73
2023/06/14 13:09:29;;;;;;;7.05;3.50;;;;;;;;;;4954722;29;20202;-73
2023/06/14 13:12:33;;;;;;;4.95;2.50;;;;;;;;;;4955472;29;20707;-73
2023/06/14 13:15:38;;;;;;;7.80;3.40;;;;;;;;;;4955273;29;20185;-73
2023/06/14 13:18:42;;;;;;;3.22;2.53;;;;;;;;;;4955049;28;20187;-73
2023/06/14 13:21:46;;;;;;;10.50;2.80;;;;;;;;;;4955137;29;20712;-72
2023/06/14 13:24:51;;;;;;;5.07;2.92;;;;;;;;;;4955323;29;20181;-72
2023/06/14 13:27:55;;;;;;;8.52;2.80;;;;;;;;;;4955555;29;20178;-73
2023/06/14 13:30:59;;;;;;;5.20;3.15;;;;;;;;;;4955283;29;20173;-73
2023/06/14 13:34:04;;;;;;;9.02;2.80;;;;;;;;;;4955245;29;20177;-73
2023/06/14 13:37:08;;;;;;;3.47;2.13;;;;;;;;;;4955061;29;20187;-73
2023/06/14 13:40:12;;;;;;;3.53;2.28;;;;;;;;;;4954004;29;20184;-73
2023/06/14 13:43:16;;;;;;;3.08;2.60;;;;;;;;;;4955433;29;20527;-73
2023/06/14 13:46:21;;;;;;;3.20;2.47;;;;;;;;;;4954873;29;20187;-73
2023/06/14 13:49:25;;;;;;;2.47;1.95;;;;;;;;;;4955070;29;20183;-73
2023/06/14 13:52:29;;;;;;;6.93;2.72;;;;;;;;;;4943175;29;20222;-73
2023/06/14 13:55:33;;;;;;;6.97;2.63;;;;;;;;;;4954482;29;20528;-73
2023/06/14 13:58:37;;;;;;;6.78;2.70;;;;;;;;;;4955035;29;20184;-73
2023/06/14 14:01:42;;;;;;;4.63;2.45;;;;;;;;;;4954755;29;20233;-73
2023/06/14 14:04:51;;;;;;;3.22;2.70;;;;;;;;;;4955322;29;20182;-73
2023/06/14 14:07:56;;;;;;;5.00;3.00;;;;;;;;;;4954706;29;20188;-73
2023/06/14 14:11:00;;;;;;;7.25;2.72;;;;;;;;;;4955205;29;20176;-73
2023/06/14 14:14:04;;;;;;;5.25;2.50;;;;;;;;;;4954142;29;20531;-73
2023/06/14 14:17:09;;;;;;;4.07;2.53;;;;;;;;;;4955537;29;20183;-73
2023/06/14 14:20:15;;;;;;;5.07;2.33;;;;;;;;;;4954979;29;20188;-73
2023/06/14 14:23:20;;;;;;;3.10;2.38;;;;;;;;;;4954442;29;20180;-73
2023/06/14 14:26:24;;;;;;;6.40;2.60;;;;;;;;;;4954201;29;20185;-72
2023/06/14 14:29:31;;;;;;;3.85;2.67;;;;;;;;;;4943370;29;20260;-72
2023/06/14 14:32:36;;;;;;;7.90;2.83;;;;;;;;;;4957483;29;20220;-72
2023/06/14 14:35:40;;;;;;;4.72;2.60;;;;;;;;;;4958206;29;20187;-73
2023/06/14 14:38:45;;;;;;;5.82;2.80;;;;;;;;;;4958639;29;20627;-72
2023/06/14 14:41:50;;;;;;;3.63;2.75;;;;;;;;;;4958197;29;20235;-72
2023/06/14 14:44:54;;;;;;;5.35;2.67;;;;;;;;;;4958552;29;20183;-72
2023/06/14 14:47:59;;;;;;;5.07;2.63;;;;;;;;;;4958512;29;20186;-72
2023/06/14 14:51:04;;;;;;;4.55;2.58;;;;;;;;;;4957832;29;20172;-72
2023/06/14 14:54:08;;;;;;;4.90;2.58;;;;;;;;;;4958428;29;20189;-72
2023/06/14 14:57:12;;;;;;;4.93;2.70;;;;;;;;;;4957466;29;20523;-72
2023/06/14 15:00:16;;;;;;;29.70;4.10;;;;;;;;;;4958258;29;20532;-72
2023/06/14 15:03:20;;;;;;;9.13;2.97;;;;;;;;;;4957194;29;20192;-72
2023/06/14 15:06:24;;;;;;;7.43;2.50;;;;;;;;;;4957778;29;20202;-72
2023/06/14 15:09:28;;;;;;;4.55;2.83;;;;;;;;;;4957510;29;20188;-72
2023/06/14 15:12:33;;;;;;;4.45;2.53;;;;;;;;;;4957448;29;20218;-72
2023/06/14 15:15:37;;;;;;;3.28;2.67;;;;;;;;;;4958088;29;20632;-72
2023/06/14 15:18:41;;;;;;;2.92;2.38;;;;;;;;;;4957456;29;20636;-72
2023/06/14 15:21:45;;;;;;;3.60;2.72;;;;;;;;;;4956703;29;20236;-72
2023/06/14 15:24:49;;;;;;;4.45;2.60;;;;;;;;;;4957346;29;20184;-72
2023/06/14 15:27:55;;;;;;;5.18;3.03;;;;;;;;;;4956901;29;20538;-72
2023/06/14 15:31:00;;;;;;;4.03;2.50;;;;;;;;;;4957150;29;20641;-72
2023/06/14 15:34:04;;;;;;;2.72;2.50;;;;;;;;;;4957448;29;20529;-72
2023/06/14 15:37:08;;;;;;;5.15;2.72;;;;;;;;;;4956715;29;20185;-72
2023/06/14 15:40:13;;;;;;;4.18;2.90;;;;;;;;;;4957214;29;20184;-72
2023/06/14 15:43:17;;;;;;;4.78;2.70;;;;;;;;;;4956138;28;20169;-72
2023/06/14 15:46:22;;;;;;;4.00;2.53;;;;;;;;;;4956894;29;20209;-72
2023/06/14 15:49:26;;;;;;;4.13;3.00;;;;;;;;;;4956866;29;20670;-72
2023/06/14 15:52:30;;;;;;;4.32;3.22;;;;;;;;;;4955909;29;20216;-72
2023/06/14 15:55:35;;;;;;;3.92;2.53;;;;;;;;;;4956707;29;20196;-72
2023/06/14 15:58:39;;;;;;;6.72;2.63;;;;;;;;;;4957128;29;20183;-72
2023/06/14 16:01:43;;;;;;;3.83;2.88;;;;;;;;;;4956519;29;20224;-72
2023/06/14 16:04:47;;;;;;;4.30;2.88;;;;;;;;;;4956740;29;20652;-72
2023/06/14 16:07:52;;;;;;;6.43;3.00;;;;;;;;;;4970928;23;20709;-70
2023/06/14 16:10:57;;;;;;;3.28;2.30;;;;;;;;;;4956560;29;20647;-70
2023/06/14 16:14:01;;;;;;;4.30;2.63;;;;;;;;;;4956483;29;20213;-70
2023/06/14 16:17:05;;;;;;;6.60;3.00;;;;;;;;;;4955784;29;20179;-70
2023/06/14 16:20:10;;;;;;;4.10;2.90;;;;;;;;;;4956658;29;20186;-70
2023/06/14 16:23:14;;;;;;;4.17;2.60;;;;;;;;;;4955559;29;20207;-70
2023/06/14 16:26:18;;;;;;;3.08;2.63;;;;;;;;;;4955433;29;20202;-70
2023/06/14 16:29:23;;;;;;;5.55;2.97;;;;;;;;;;4956780;29;20186;-70
2023/06/14 16:32:27;;;;;;;10.23;2.83;;;;;;;;;;4955916;29;20215;-70
2023/06/14 16:35:31;;;;;;;6.38;2.80;;;;;;;;;;4955883;29;20672;-70
2023/06/14 16:38:35;;;;;;;6.38;2.95;;;;;;;;;;4956171;29;20178;-71
2023/06/14 16:41:40;;;;;;;5.00;3.42;;;;;;;;;;4955789;29;20225;-70
2023/06/14 16:44:44;;;;;;;5.50;2.67;;;;;;;;;;4955168;29;20187;-71
2023/06/14 16:47:48;;;;;;;4.13;3.10;;;;;;;;;;4955872;29;20184;-71
2023/06/14 16:50:52;;;;;;;4.70;2.90;;;;;;;;;;4955096;29;20196;-71
2023/06/14 16:53:56;;;;;;;3.50;3.20;;;;;;;;;;4954701;28;20182;-70
2023/06/14 16:57:00;;;;;;;8.63;2.87;;;;;;;;;;4955966;29;20196;-71
2023/06/14 17:00:06;;;;;;;5.43;3.13;;;;;;;;;;4955451;29;20205;-70
2023/06/14 17:03:10;;;;;;;3.87;2.90;;;;;;;;;;4955262;29;20567;-70
2023/06/14 17:06:14;;;;;;;10.17;3.70;;;;;;;;;;4954925;29;20185;-70
2023/06/14 17:09:18;;;;;;;5.23;3.10;;;;;;;;;;4955559;29;20186;-70
2023/06/14 17:12:22;;;;;;;3.43;2.93;;;;;;;;;;4954727;29;20213;-70
2023/06/14 17:15:26;;;;;;;6.60;3.30;;;;;;;;;;4955422;29;20189;-70
2023/06/14 17:18:31;;;;;;;8.70;2.90;;;;;;;;;;4955543;29;20181;-70
2023/06/14 17:21:35;;;;;;;4.67;3.07;;;;;;;;;;4955170;29;20223;-69
2023/06/14 17:24:39;;;;;;;3.90;2.90;;;;;;;;;;4955040;29;20200;-70
2023/06/14 17:27:44;;;;;;;9.77;3.13;;;;;;;;;;4954265;29;20187;-70
2023/06/14 17:30:48;;;;;;;5.47;3.40;;;;;;;;;;4954230;29;20182;-70
2023/06/14 17:33:52;;;;;;;7.57;3.40;;;;;;;;;;4955287;29;20623;-69
2023/06/14 17:36:56;;;;;;;5.40;3.33;;;;;;;;;;4954950;29;20193;-69
2023/06/14 17:40:00;;;;;;;7.20;3.10;;;;;;;;;;4954944;29;20188;-70
2023/06/14 17:43:05;;;;;;;6.27;3.10;;;;;;;;;;4954787;29;20231;-70
2023/06/14 17:46:09;;;;;;;6.93;2.90;;;;;;;;;;4954828;29;20180;-70
2023/06/14 17:49:13;;;;;;;4.70;3.00;;;;;;;;;;4955127;29;20176;-70
2023/06/14 17:52:17;;;;;;;4.70;3.00;;;;;;;;;;4954585;29;20222;-70
2023/06/14 17:55:22;;;;;;;4.10;2.80;;;;;;;;;;4943296;29;20189;-70
2023/06/14 17:58:26;;;;;;;6.13;2.87;;;;;;;;;;4954193;29;20193;-70
2023/06/14 18:01:30;;;;;;;4.20;2.80;;;;;;;;;;4954628;29;20220;-70
2023/06/14 18:04:34;;;;;;;4.00;2.87;;;;;;;;;;4955008;28;20200;-69
2023/06/14 18:07:38;;;;;;;5.10;2.90;;;;;;;;;;4958535;29;20215;-69
2023/06/14 18:10:42;;;;;;;5.07;2.77;;;;;;;;;;4958519;29;20187;-69
2023/06/14 18:13:47;;;;;;;3.13;2.83;;;;;;;;;;4958698;29;20697;-69
2023/06/14 18:16:51;;;;;;;5.63;3.03;;;;;;;;;;4958150;29;20188;-70
2023/06/14 18:19:55;;;;;;;5.30;3.00;;;;;;;;;;4958671;29;20187;-70
2023/06/14 18:22:59;;;;;;;3.80;2.90;;;;;;;;;;4957339;29;20227;-70
2023/06/14 18:26:03;;;;;;;3.77;3.07;;;;;;;;;;4957476;29;20183;-69
2023/06/14 18:29:07;;;;;;;3.27;2.67;;;;;;;;;;4958316;29;20183;-70
2023/06/14 18:32:11;;;;;;;5.47;3.13;;;;;;;;;;4958342;29;20207;-70